Archival Weather

Vermilion Rgnl

Danville, Illinois (KDNV)

Report from: Saturday, April 13, 2024 10:35 PM CDT
Current time: Sunday, July 14, 2024 6:42 AM CDT

Current weather – Weather history – Daily summaries
Weather forecast

Temperature16.6°C (61.9°F)
Dew point5.5°C (41.9°F)
Winds 14 kts (7.2 m/s, 16.1 mph) South (180°)
Visibility10 mi. (16.1 km)
Clouds Sky clear
Altimeter29.92 in.Hg (1013 mB)
Relative humidity48 %
Density altitude323 ft. (98 m)
Remarks Fully automated report
Automated weather observing station with precipitation discriminator
Flight conditions Visual Meteorological Conditions
Raw dataKDNV 140335Z AUTO 18014KT 10SM CLR 17/06 A2992 RMK AO2 T01660055
An error has occurred. This application may no longer respond until reloaded. Reload 🗙